Time;durP1;ratioP1;P1;durP2;ratioP2;P2;SDS_P1;SDS_P2;PMS_P1;PMS_P2;Temp;Humidity;BMP_temperature;BMP_pressure;BME280_temperature;BME280_humidity;BME280_pressure;Samples;Min_cycle;Max_cycle;Signal;HPM_P1;HPM_P2
2022/05/16 00:00:38;;;;;;;8.23;4.55;;;;;;;9.47;62.36;100714.38;2075959;85;32952;-74
2022/05/16 00:03:40;;;;;;;8.28;5.05;;;;;;;9.43;62.54;100710.48;2072866;85;29047;-75
2022/05/16 00:06:42;;;;;;;10.80;4.87;;;;;;;9.44;62.32;100716.69;2048319;86;28268;-74
2022/05/16 00:09:45;;;;;;;18.82;8.98;;;;;;;9.41;62.33;100715.49;2048343;86;29549;-74
2022/05/16 00:12:47;;;;;;;13.93;7.35;;;;;;;9.39;62.58;100716.87;2048295;86;32187;-74
2022/05/16 00:15:48;;;;;;;17.55;7.10;;;;;;;9.38;63.34;100712.45;2048543;86;32952;-72
2022/05/16 00:18:51;;;;;;;16.73;7.17;;;;;;;9.39;63.63;100720.88;2048566;86;29802;-78
2022/05/16 00:21:53;;;;;;;12.93;7.12;;;;;;;9.39;63.38;100720.88;2048640;86;27714;-74
2022/05/16 00:24:55;;;;;;;11.73;5.67;;;;;;;9.40;63.31;100721.77;2048373;86;29438;-74
2022/05/16 00:27:59;;;;;;;9.80;6.00;;;;;;;9.37;63.24;100721.40;2048304;86;31792;-77
2022/05/16 00:31:01;;;;;;;10.60;5.97;;;;;;;9.37;63.20;100724.07;2003706;88;33737;-74
2022/05/16 00:34:03;;;;;;;12.53;5.60;;;;;;;9.38;63.09;100727.64;2003380;88;29816;-73
2022/05/16 00:37:05;;;;;;;8.43;5.28;;;;;;;9.34;62.97;100729.56;2003519;88;27782;-75
2022/05/16 00:40:09;;;;;;;10.82;4.80;;;;;;;9.33;62.77;100729.16;2003531;88;29312;-70
2022/05/16 00:43:13;;;;;;;10.68;4.95;;;;;;;9.32;62.77;100731.86;2003388;88;31211;-75
2022/05/16 00:46:17;;;;;;;7.33;4.37;;;;;;;9.32;62.75;100726.52;2003153;88;33084;-73
2022/05/16 00:49:30;;;;;;;8.20;4.83;;;;;;;9.32;62.73;100724.73;2009187;87;29207;-73
2022/05/16 00:52:37;;;;;;;12.00;4.72;;;;;;;9.34;62.63;100721.54;2040876;87;27800;-76
2022/05/16 00:55:42;;;;;;;8.58;4.67;;;;;;;9.34;62.54;100727.34;2040768;85;29699;-75
2022/05/16 00:58:43;;;;;;;9.33;4.60;;;;;;;9.32;62.40;100727.86;2079259;84;31944;-75
2022/05/16 01:05:09;;;;;;;8.43;4.22;;;;;;;9.26;62.37;100724.95;2079069;85;29233;-77
2022/05/16 01:08:18;;;;;;;;;;;;;;;9.23;62.53;100726.39;2081772;85;27769;-79
2022/05/16 01:11:20;;;;;;;15.60;4.17;;;;;;;9.24;62.55;100729.48;2066007;85;28742;-72
2022/05/16 01:14:48;;;;;;;10.23;4.35;;;;;;;9.23;62.26;100725.06;2078916;85;31853;-73
2022/05/16 01:17:50;;;;;;;8.45;3.60;;;;;;;9.20;62.29;100729.17;2078334;85;34202;-74
2022/05/16 01:21:19;;;;;;;13.25;6.10;;;;;;;9.19;62.32;100731.44;2078868;85;29030;-74
2022/05/16 01:24:21;;;;;;;41.28;15.32;;;;;;;9.16;62.31;100738.27;2078526;84;27753;-75
2022/05/16 01:27:23;;;;;;;32.35;13.05;;;;;;;9.12;62.22;100735.70;2061008;85;28827;-76
2022/05/16 01:30:39;;;;;;;37.45;14.13;;;;;;;9.08;62.13;100738.55;2088455;85;31038;-75
2022/05/16 01:33:41;;;;;;;28.35;11.38;;;;;;;9.03;62.12;100740.50;2088629;85;32963;-72
2022/05/16 01:36:42;;;;;;;33.00;12.75;;;;;;;8.97;62.28;100742.94;2088251;85;29013;-72
2022/05/16 01:39:44;;;;;;;17.80;7.75;;;;;;;8.91;62.28;100741.36;2088377;85;27635;-70
2022/05/16 01:42:48;;;;;;;21.50;9.60;;;;;;;8.87;62.20;100747.73;2088296;83;28815;-74
2022/05/16 01:45:51;;;;;;;15.13;5.92;;;;;;;8.81;62.22;100743.48;2088901;85;31098;-71
2022/05/16 01:48:55;;;;;;;21.00;7.70;;;;;;;8.75;62.32;100747.69;2124633;83;33827;-73
2022/05/16 01:51:57;;;;;;;12.35;5.95;;;;;;;8.70;62.31;100739.44;2070296;85;29022;-75
2022/05/16 01:54:59;;;;;;;12.68;5.17;;;;;;;8.65;62.42;100744.94;2069209;86;27697;-75
2022/05/16 01:58:04;;;;;;;14.87;5.33;;;;;;;8.60;62.48;100739.77;2072709;85;28849;-74
2022/05/16 02:01:05;;;;;;;9.78;5.50;;;;;;;8.54;62.55;100739.97;2069008;86;31061;-74
2022/05/16 02:04:07;;;;;;;10.75;4.87;;;;;;;8.51;62.63;100744.96;2069003;86;33832;-72
2022/05/16 02:07:09;;;;;;;10.05;5.28;;;;;;;8.46;62.68;100743.30;2068816;86;29815;-71
2022/05/16 02:10:15;;;;;;;13.68;6.45;;;;;;;8.41;62.64;100748.81;2069067;85;27669;-73
2022/05/16 02:13:17;;;;;;;7.12;4.22;;;;;;;8.39;62.83;100753.80;2068877;86;29583;-74
2022/05/16 02:16:19;;;;;;;10.38;5.22;;;;;;;8.33;62.99;100745.06;2063930;86;31020;-73
2022/05/16 02:19:21;;;;;;;7.42;3.90;;;;;;;8.29;63.16;100747.41;2111353;84;33098;-71
2022/05/16 02:25:47;;;;;;;13.55;5.03;;;;;;;8.21;63.34;100753.00;2111060;84;27628;-72
2022/05/16 02:28:49;;;;;;;7.35;4.12;;;;;;;8.15;63.47;100746.55;2068709;85;29898;-70
2022/05/16 02:31:51;;;;;;;9.35;4.05;;;;;;;8.11;63.41;100746.23;2069045;85;31608;-69
2022/05/16 02:34:53;;;;;;;10.55;4.47;;;;;;;8.08;63.48;100745.47;2070833;85;32900;-71
2022/05/16 02:37:58;;;;;;;8.75;4.53;;;;;;;8.03;63.62;100743.80;2068513;86;29885;-73
2022/05/16 02:41:00;;;;;;;6.55;4.28;;;;;;;7.99;63.77;100746.16;2069005;86;28078;-73
2022/05/16 02:44:02;;;;;;;8.68;4.42;;;;;;;7.95;63.84;100747.64;2068473;86;29997;-73
2022/05/16 02:47:05;;;;;;;8.98;4.50;;;;;;;7.90;63.79;100746.46;2069306;86;31562;-71
2022/05/16 02:50:08;;;;;;;11.83;4.75;;;;;;;7.86;63.85;100749.66;2070530;84;33014;-70
2022/05/16 02:53:10;;;;;;;11.93;4.72;;;;;;;7.82;64.00;100749.81;2077674;85;29484;-73
2022/05/16 02:56:12;;;;;;;6.92;4.35;;;;;;;7.80;64.09;100750.31;2077966;85;27606;-72
2022/05/16 02:59:14;;;;;;;9.03;4.10;;;;;;;7.75;64.32;100746.46;2077655;85;28676;-74
2022/05/16 03:02:16;;;;;;;11.28;4.20;;;;;;;7.74;64.37;100748.71;2077735;85;31052;-72
2022/05/16 03:05:18;;;;;;;9.10;4.22;;;;;;;7.71;64.37;100743.02;2078040;85;33889;-71
2022/05/16 03:08:20;;;;;;;15.72;4.72;;;;;;;7.73;64.30;100744.30;2077961;85;29064;-75
2022/05/16 03:11:22;;;;;;;8.60;4.37;;;;;;;7.72;64.49;100738.11;2078314;85;27721;-76
2022/05/16 03:14:24;;;;;;;8.40;4.12;;;;;;;7.73;64.60;100737.63;2077958;85;29562;-71
2022/05/16 03:17:26;;;;;;;7.92;4.70;;;;;;;7.74;64.63;100739.38;2078052;85;31678;-73
2022/05/16 03:20:27;;;;;;;9.35;4.95;;;;;;;7.77;64.99;100737.95;2077781;85;33899;-74
2022/05/16 03:23:29;;;;;;;10.20;5.00;;;;;;;7.83;65.72;100734.22;2077930;85;29096;-72
2022/05/16 03:26:31;;;;;;;8.93;4.97;;;;;;;7.88;65.99;100722.48;2078004;85;28225;-72
2022/05/16 03:29:33;;;;;;;11.22;5.22;;;;;;;7.99;66.33;100723.95;2077907;85;28710;-70
2022/05/16 03:32:34;;;;;;;8.78;4.65;;;;;;;8.08;66.62;100721.45;2077864;85;32204;-71
2022/05/16 03:35:36;;;;;;;7.15;4.33;;;;;;;8.17;66.38;100717.12;2077830;85;32973;-70
2022/05/16 03:42:05;;;;;;;11.45;4.25;;;;;;;8.40;66.28;100723.52;2077758;85;27777;-73
2022/05/16 03:45:10;;;;;;;10.50;4.00;;;;;;;8.51;66.47;100713.36;2077056;85;27741;-73
2022/05/16 03:48:12;;;;;;;5.60;4.15;;;;;;;8.61;66.19;100719.26;2077504;85;31173;-72
2022/05/16 03:51:15;;;;;;;7.17;4.05;;;;;;;8.71;66.19;100723.81;2090489;84;32966;-72
2022/05/16 03:54:17;;;;;;;10.28;4.37;;;;;;;8.80;66.14;100725.70;2106541;84;29653;-72
2022/05/16 03:57:21;;;;;;;8.08;4.42;;;;;;;8.89;65.95;100721.84;2106449;84;27607;-72
2022/05/16 04:00:23;;;;;;;9.70;4.30;;;;;;;8.97;65.96;100724.23;2106553;84;28691;-73
2022/05/16 04:03:24;;;;;;;8.95;4.83;;;;;;;9.06;65.89;100724.36;2106419;84;32206;-71
2022/05/16 04:06:27;;;;;;;10.93;4.90;;;;;;;9.15;66.16;100724.48;2106400;84;33726;-71
2022/05/16 04:09:44;;;;;;;12.82;4.65;;;;;;;9.22;66.07;100728.21;2084545;84;29830;-72
2022/05/16 04:12:46;;;;;;;16.07;4.85;;;;;;;9.33;66.00;100723.80;2029378;86;28282;-72
2022/05/16 04:15:48;;;;;;;10.18;3.95;;;;;;;9.46;65.92;100717.50;2088463;84;28679;-74
2022/05/16 04:18:54;;;;;;;9.68;5.08;;;;;;;9.56;65.76;100718.91;2088146;84;28808;-72
2022/05/16 04:21:56;;;;;;;14.87;4.92;;;;;;;9.65;65.58;100723.03;2112566;82;35449;-73
2022/05/16 04:25:01;;;;;;;11.00;4.75;;;;;;;9.78;65.46;100720.72;2010830;87;29137;-74
2022/05/16 04:28:16;;;;;;;8.88;4.60;;;;;;;9.90;65.36;100726.06;2052321;86;27294;-75
2022/05/16 04:31:50;;;;;;;13.62;5.33;;;;;;;10.04;65.29;100724.17;2063593;86;27653;-74
2022/05/16 04:34:47;;;;;;;10.93;4.12;;;;;;;10.22;65.06;100725.70;2065459;84;32231;-73
2022/05/16 04:37:52;;;;;;;11.28;4.30;;;;;;;10.46;64.73;100734.06;2076685;85;32946;-74
2022/05/16 04:44:14;;;;;;;15.60;5.30;;;;;;;12.25;64.62;100735.39;2025000;87;27763;-73
2022/05/16 04:47:18;;;;;;;11.63;4.95;;;;;;;14.01;63.85;100733.28;2025160;87;29591;-72
2022/05/16 04:50:24;;;;;;;10.88;4.62;;;;;;;15.64;62.09;100723.05;2023878;87;31123;-73
2022/05/16 04:53:26;;;;;;;9.88;5.35;;;;;;;17.17;60.54;100715.17;1999091;89;33970;-72
2022/05/16 04:56:28;;;;;;;11.88;5.42;;;;;;;19.72;56.35;100719.48;1999124;89;29065;-74
2022/05/16 04:59:32;;;;;;;13.40;5.53;;;;;;;19.72;56.35;100719.48;1999035;89;27845;-74
2022/05/16 05:02:36;;;;;;;13.98;4.78;;;;;;;20.74;53.60;100710.12;1936869;91;28757;-73
2022/05/16 05:05:40;;;;;;;11.60;4.30;;;;;;;21.67;52.40;100712.98;1915795;91;27812;-73
2022/05/16 05:08:44;;;;;;;10.40;4.03;;;;;;;22.43;50.23;100709.31;1937062;91;32956;-73
2022/05/16 05:15:17;;;;;;;10.90;4.20;;;;;;;23.40;45.43;100710.67;1936877;91;27685;-72
2022/05/16 05:18:19;;;;;;;9.58;4.10;;;;;;;23.62;45.25;100707.53;1860357;95;27822;-70
2022/05/16 05:21:21;;;;;;;10.13;4.00;;;;;;;23.82;44.15;100701.95;1863825;95;31072;-71
2022/05/16 05:24:27;;;;;;;6.83;4.30;;;;;;;24.07;43.32;100700.91;1891418;93;33062;-70
2022/05/16 05:27:33;;;;;;;6.10;4.12;;;;;;;24.11;41.95;100703.66;1892162;94;29035;-72
2022/05/16 05:30:37;;;;;;;14.70;5.75;;;;;;;24.18;41.40;100706.15;1880727;94;27800;-72
2022/05/16 05:33:44;;;;;;;6.47;4.30;;;;;;;24.14;40.56;100704.73;1878034;94;28868;-73
2022/05/16 05:36:55;;;;;;;6.40;3.70;;;;;;;23.74;39.17;100690.41;1890750;92;31127;-72
2022/05/16 05:40:10;;;;;;;10.70;4.03;;;;;;;23.67;39.23;100707.94;1959193;90;33022;-73
2022/05/16 05:43:18;;;;;;;11.18;4.30;;;;;;;23.64;39.04;100704.66;1958929;90;29154;-71
2022/05/16 05:46:20;;;;;;;6.50;3.85;;;;;;;23.75;39.17;100707.67;1959432;90;27885;-71
2022/05/16 05:49:26;;;;;;;10.68;4.08;;;;;;;23.94;39.01;100703.98;1959102;90;28670;-72
2022/05/16 05:52:28;;;;;;;5.03;3.65;;;;;;;23.95;38.68;100705.70;1959857;90;31890;-72
2022/05/16 05:55:33;;;;;;;10.15;4.17;;;;;;;24.29;37.79;100700.95;1961892;90;33078;-72
2022/05/16 05:58:36;;;;;;;5.47;3.90;;;;;;;24.49;37.72;100705.75;1961898;90;29739;-71
2022/05/16 06:01:38;;;;;;;6.33;3.87;;;;;;;24.87;37.30;100704.20;1962203;90;27703;-71
2022/05/16 06:04:40;;;;;;;11.18;4.40;;;;;;;25.43;37.65;100711.59;1968917;88;28160;-73
2022/05/16 06:07:42;;;;;;;11.53;4.85;;;;;;;26.00;36.36;100708.73;2003576;88;31097;-71
2022/05/16 06:10:44;;;;;;;5.50;3.15;;;;;;;26.36;35.68;100707.63;2003416;88;34048;-73
2022/05/16 06:13:46;;;;;;;10.82;3.85;;;;;;;26.75;34.88;100712.95;2003505;88;29024;-74
2022/05/16 06:16:47;;;;;;;9.38;4.12;;;;;;;27.12;34.50;100708.31;1987460;88;27692;-72
2022/05/16 06:19:51;;;;;;;11.60;3.95;;;;;;;27.68;34.04;100699.73;1945228;90;27829;-71
2022/05/16 06:22:54;;;;;;;7.58;3.50;;;;;;;28.12;33.22;100701.92;2028384;87;31053;-73
2022/05/16 06:26:03;;;;;;;20.60;3.70;;;;;;;28.46;33.52;100703.41;2028410;87;33006;-71
2022/05/16 06:29:07;;;;;;;11.90;3.85;;;;;;;28.89;32.63;100697.38;1956582;91;30146;-71
2022/05/16 06:32:10;;;;;;;8.80;3.40;;;;;;;29.27;32.20;100699.21;1956461;91;27801;-71
2022/05/16 06:35:13;;;;;;;7.67;3.70;;;;;;;29.80;31.01;100700.47;1947092;91;29405;-70
2022/05/16 06:38:26;;;;;;;12.55;3.47;;;;;;;30.26;30.62;100702.09;1947119;91;31209;-71
2022/05/16 06:41:32;;;;;;;7.55;3.50;;;;;;;30.61;30.24;100703.64;1900977;93;33063;-72
2022/05/16 06:44:34;;;;;;;10.80;3.55;;;;;;;30.55;28.98;100696.12;1882444;94;30034;-71
2022/05/16 06:47:43;;;;;;;7.75;3.40;;;;;;;30.72;29.21;100692.56;1882749;94;27712;-72
2022/05/16 06:50:45;;;;;;;5.65;3.00;;;;;;;31.04;28.85;100687.48;1900011;93;28749;-70
2022/05/16 06:53:51;;;;;;;9.03;2.90;;;;;;;31.18;27.97;100695.89;1901492;93;31079;-71
2022/05/16 06:57:05;;;;;;;10.53;3.30;;;;;;;31.33;26.57;100692.47;1901049;93;28954;-71
2022/05/16 07:00:26;;;;;;;8.18;3.55;;;;;;;31.47;27.38;100690.64;1928088;92;29085;-69
2022/05/16 07:03:49;;;;;;;11.45;4.65;;;;;;;31.69;26.11;100690.50;1912339;93;27838;-70
2022/05/16 07:07:11;;;;;;;7.67;3.10;;;;;;;31.73;26.21;100689.07;1927747;92;28885;-70
2022/05/16 07:10:21;;;;;;;5.42;3.22;;;;;;;32.16;26.20;100682.92;1912684;93;32168;-71
2022/05/16 07:13:34;;;;;;;7.87;3.15;;;;;;;32.62;26.01;100694.63;1927951;92;33063;-70
2022/05/16 07:16:55;;;;;;;6.53;3.10;;;;;;;32.85;24.89;100696.13;1912561;93;29155;-70
2022/05/16 07:19:57;;;;;;;7.92;2.52;;;;;;;32.97;25.21;100691.66;1943423;91;27803;-69
2022/05/16 07:23:00;;;;;;;8.68;3.12;;;;;;;32.94;24.06;100690.70;1943706;91;28687;-69
2022/05/16 07:29:23;;;;;;;6.45;2.85;;;;;;;32.77;23.73;100683.30;1914970;92;34229;-71
2022/05/16 07:32:41;;;;;;;9.38;2.85;;;;;;;32.77;23.53;100683.84;1915196;92;29042;-71
2022/05/16 07:35:41;;;;;;;4.45;2.92;;;;;;;32.70;23.81;100683.30;1915024;92;27856;-71
2022/05/16 07:38:43;;;;;;;3.85;2.77;;;;;;;32.81;23.03;100680.45;2004636;87;28726;-72
2022/05/16 07:41:49;;;;;;;11.15;2.92;;;;;;;32.77;22.90;100680.52;2044098;87;31180;-69
2022/05/16 07:44:50;;;;;;;9.75;3.25;;;;;;;32.63;22.77;100669.98;2010913;88;33719;-70
2022/05/16 07:47:52;;;;;;;3.80;2.27;;;;;;;32.56;22.39;100678.31;2010756;88;29023;-72
2022/05/16 07:50:54;;;;;;;4.12;2.30;;;;;;;32.44;22.92;100679.98;2011006;88;27801;-70
2022/05/16 07:53:56;;;;;;;6.60;2.58;;;;;;;32.50;22.68;100671.37;2007791;88;28718;-72
2022/05/16 07:56:58;;;;;;;10.15;3.35;;;;;;;32.28;22.73;100675.72;2007958;88;31086;-72
2022/05/16 07:59:59;;;;;;;6.40;2.52;;;;;;;32.28;22.68;100669.62;2007939;88;33764;-72
2022/05/16 08:03:02;;;;;;;7.33;2.80;;;;;;;32.26;22.56;100669.02;2007873;88;29012;-71
2022/05/16 08:06:04;;;;;;;10.75;2.55;;;;;;;32.09;22.05;100667.67;2008136;88;27892;-71
2022/05/16 08:12:35;;;;;;;4.42;2.05;;;;;;;31.84;22.14;100671.00;2007629;88;31111;-72
2022/05/16 08:15:41;;;;;;;8.05;2.92;;;;;;;31.55;22.29;100670.74;2014426;87;33915;-71
2022/05/16 08:18:43;;;;;;;3.90;2.55;;;;;;;31.65;22.33;100667.08;1998575;89;29039;-72
2022/05/16 08:21:48;;;;;;;3.20;1.85;;;;;;;31.46;22.22;100664.52;2004550;88;27831;-71
2022/05/16 08:24:48;;;;;;;5.28;2.20;;;;;;;31.37;21.94;100668.86;2004553;88;28687;-70
2022/05/16 08:27:54;;;;;;;2.75;1.70;;;;;;;31.17;22.17;100664.61;2004252;88;32002;-72
2022/05/16 08:30:53;;;;;;;9.80;3.02;;;;;;;31.02;22.08;100670.77;2003497;88;33169;-71
2022/05/16 08:33:56;;;;;;;5.22;2.05;;;;;;;30.98;22.38;100673.06;2004604;88;29970;-71
2022/05/16 08:40:19;;;;;;;6.40;2.42;;;;;;;30.59;22.15;100678.63;2008826;87;28705;-71
2022/05/16 08:43:51;;;;;;;3.52;2.05;;;;;;;30.34;22.28;100676.77;2068909;86;31902;-74
2022/05/16 08:47:35;;;;;;;8.28;1.75;;;;;;;30.33;22.35;100680.05;2064831;85;33016;-73
2022/05/16 08:50:51;;;;;;;5.78;1.80;;;;;;;30.23;22.17;100676.22;2062964;86;29041;-75
2022/05/16 08:54:19;;;;;;;8.93;1.70;;;;;;;30.26;22.96;100673.61;2075844;85;27764;-72
2022/05/16 08:57:28;;;;;;;5.72;1.85;;;;;;;30.49;23.11;100678.06;2077881;85;28703;-72
2022/05/16 09:00:55;;;;;;;5.22;2.17;;;;;;;30.73;22.80;100682.34;2078155;85;31080;-71
2022/05/16 09:04:05;;;;;;;6.65;1.72;;;;;;;30.98;22.86;100675.83;2077857;85;33044;-72
2022/05/16 09:07:26;;;;;;;14.38;2.42;;;;;;;30.91;22.39;100674.94;2078020;85;29114;-73
2022/05/16 09:11:11;;;;;;;3.50;1.90;;;;;;;30.92;22.67;100671.96;2078165;85;27735;-73
2022/05/16 09:14:39;;;;;;;4.95;1.57;;;;;;;30.88;22.58;100672.03;2077438;85;29601;-74
2022/05/16 09:18:22;;;;;;;3.65;1.60;;;;;;;30.88;22.77;100667.04;2075381;85;31061;-73
2022/05/16 09:21:58;;;;;;;2.85;1.87;;;;;;;30.95;22.31;100665.16;2077849;85;33206;-74
2022/05/16 09:25:20;;;;;;;3.52;1.85;;;;;;;30.79;22.25;100664.08;2077743;83;29186;-75
2022/05/16 09:28:34;;;;;;;3.87;1.67;;;;;;;30.67;22.12;100670.17;2078172;85;27768;-74
2022/05/16 09:31:40;;;;;;;3.50;2.25;;;;;;;30.45;22.36;100659.64;2078112;85;28695;-74
2022/05/16 09:34:42;;;;;;;5.90;3.02;;;;;;;30.37;22.41;100658.38;2078180;85;31053;-73
2022/05/16 09:37:44;;;;;;;7.55;2.52;;;;;;;30.26;22.54;100649.58;2077987;85;33277;-73
2022/05/16 09:41:03;;;;;;;4.72;1.90;;;;;;;30.12;22.36;100654.11;2078079;85;29900;-75
2022/05/16 09:44:25;;;;;;;7.40;1.87;;;;;;;29.97;22.26;100649.17;2078294;85;28262;-75
2022/05/16 09:47:34;;;;;;;13.00;7.40;;;;;;;29.77;22.24;100641.51;2077845;85;28746;-74
2022/05/16 09:50:40;;;;;;;8.48;2.42;;;;;;;29.32;22.30;100648.95;2077437;85;31908;-72
2022/05/16 09:53:44;;;;;;;52.13;35.15;;;;;;;29.01;22.73;100641.23;2077439;85;32923;-73
2022/05/16 09:57:25;;;;;;;6.05;2.80;;;;;;;28.65;22.79;100642.75;2077524;85;36734;-74
2022/05/16 10:00:40;;;;;;;6.28;1.98;;;;;;;28.52;23.07;100642.54;2077320;84;27643;-72
2022/05/16 10:03:48;;;;;;;3.52;1.98;;;;;;;28.32;23.30;100645.80;2077804;85;28675;-72
2022/05/16 10:07:04;;;;;;;4.00;1.87;;;;;;;28.30;23.64;100644.28;2077781;85;31772;-72
2022/05/16 10:10:07;;;;;;;4.83;1.60;;;;;;;28.25;23.52;100646.22;2077199;85;33095;-74
2022/05/16 10:13:10;;;;;;;5.37;1.85;;;;;;;28.29;23.80;100646.70;2048153;85;29043;-73
2022/05/16 10:16:12;;;;;;;6.28;2.02;;;;;;;28.35;23.60;100636.33;2077837;85;27701;-73
2022/05/16 10:19:20;;;;;;;4.92;1.67;;;;;;;28.30;23.38;100632.73;2077894;85;29464;-73
2022/05/16 10:22:25;;;;;;;3.10;2.05;;;;;;;28.21;23.83;100633.85;2077810;85;30996;-74
2022/05/16 10:25:32;;;;;;;5.40;1.65;;;;;;;28.00;23.52;100631.74;2077473;85;33043;-73
2022/05/16 10:28:41;;;;;;;8.28;2.67;;;;;;;27.75;23.51;100636.02;2077882;83;29021;-75
2022/05/16 10:35:15;;;;;;;4.10;1.70;;;;;;;27.53;24.04;100628.06;2077546;85;28700;-72
2022/05/16 10:38:40;;;;;;;8.03;2.25;;;;;;;27.47;24.15;100629.64;2077920;85;31037;-73
2022/05/16 10:42:06;;;;;;;9.28;3.98;;;;;;;27.47;24.05;100628.27;2077691;85;32924;-74
2022/05/16 10:45:20;;;;;;;5.47;1.87;;;;;;;27.35;23.88;100621.42;2076325;85;29024;-73
2022/05/16 10:48:44;;;;;;;2.87;1.50;;;;;;;27.24;24.03;100615.78;2076674;85;27751;-73
2022/05/16 10:52:07;;;;;;;4.25;2.10;;;;;;;27.12;24.14;100619.44;2077465;85;28883;-71
2022/05/16 10:55:09;;;;;;;6.17;1.67;;;;;;;26.97;24.40;100615.20;2076248;84;31099;-72
2022/05/16 10:58:25;;;;;;;8.60;2.62;;;;;;;26.97;24.50;100613.83;2077572;85;32978;-73
2022/05/16 11:01:39;;;;;;;5.83;2.60;;;;;;;26.87;24.33;100606.28;1936135;91;29133;-73
2022/05/16 11:05:16;;;;;;;4.25;1.98;;;;;;;26.77;24.74;100608.69;1875845;93;27820;-75
2022/05/16 11:08:26;;;;;;;6.85;2.05;;;;;;;26.73;24.71;100597.70;1876211;94;28749;-75
2022/05/16 11:11:56;;;;;;;8.28;1.80;;;;;;;26.64;24.83;100595.48;1876219;94;31702;-76
2022/05/16 11:15:24;;;;;;;5.10;2.05;;;;;;;26.41;24.67;100588.48;1826842;97;33159;-73
2022/05/16 11:18:40;;;;;;;5.90;1.87;;;;;;;26.27;24.70;100590.55;1827285;97;29081;-76
2022/05/16 11:21:49;;;;;;;;;;;;;;;26.05;24.72;100585.55;1829598;96;27811;-76
2022/05/16 11:25:13;;;;;;;5.35;1.70;;;;;;;25.86;24.86;100585.34;1831961;97;28908;-75
2022/05/16 11:28:18;;;;;;;;;;;;;;;25.61;25.06;100586.69;1834478;97;32088;-76
2022/05/16 11:31:24;;;;;;;6.78;1.90;;;;;;;25.34;25.08;100594.09;1831174;95;29680;-76
2022/05/16 11:34:46;;;;;;;5.53;1.80;;;;;;;25.16;25.52;100582.37;1853114;94;29044;-74
2022/05/16 11:38:13;;;;;;;3.35;1.52;;;;;;;25.08;26.03;100580.98;1876769;91;27713;-75
2022/05/16 11:41:55;;;;;;;3.25;1.60;;;;;;;25.03;25.99;100578.21;1954249;90;28667;-74
2022/05/16 11:45:08;;;;;;;6.55;1.72;;;;;;;24.98;26.06;100583.34;1966714;90;31046;-75
2022/05/16 11:48:40;;;;;;;4.20;1.57;;;;;;;24.94;26.00;100577.84;1946055;91;33573;-74
2022/05/16 11:52:12;;;;;;;6.65;1.80;;;;;;;24.94;26.51;100568.25;1922784;91;29116;-74
2022/05/16 12:02:15;;;;;;;3.95;1.80;;;;;;;25.00;26.54;100548.91;1966059;90;31147;-76
2022/05/16 12:05:29;;;;;;;2.62;1.52;;;;;;;24.87;26.44;100546.61;1966298;90;33651;-75
2022/05/16 12:08:44;;;;;;;4.40;1.82;;;;;;;24.63;26.37;100545.45;1966857;90;29205;-74
2022/05/16 12:12:02;;;;;;;4.90;2.10;;;;;;;24.43;26.31;100550.27;1966728;90;28038;-74
2022/05/16 12:15:30;;;;;;;6.12;1.85;;;;;;;24.23;26.73;100548.25;1969743;90;28674;-74
2022/05/16 12:18:39;;;;;;;10.70;2.30;;;;;;;24.09;26.66;100540.97;1945886;91;31256;-75
2022/05/16 12:21:40;;;;;;;7.00;2.10;;;;;;;24.03;27.00;100540.22;1983379;88;33847;-75
2022/05/16 12:24:57;;;;;;;5.62;2.37;;;;;;;23.96;27.17;100535.89;2008381;88;29780;-75
2022/05/16 12:28:19;;;;;;;4.97;1.80;;;;;;;23.86;27.33;100531.00;2020114;85;27756;-66
2022/05/16 12:31:28;;;;;;;5.30;2.00;;;;;;;23.82;27.91;100527.73;2089373;85;28825;-75
2022/05/16 12:34:36;;;;;;;6.42;1.80;;;;;;;23.75;27.37;100528.48;2065498;85;31210;-76
2022/05/16 12:37:39;;;;;;;3.20;1.50;;;;;;;23.69;27.34;100519.55;2089297;85;33004;-74
2022/05/16 12:41:38;;;;;;;4.20;2.00;;;;;;;23.68;27.56;100520.05;2088893;85;28879;-77
2022/05/16 12:44:44;;;;;;;6.15;1.80;;;;;;;23.65;27.51;100512.18;2084174;83;27726;-76
2022/05/16 12:48:17;;;;;;;3.90;1.80;;;;;;;23.64;27.43;100502.25;2088419;85;28872;-75
2022/05/16 12:51:59;;;;;;;8.33;2.02;;;;;;;23.61;27.45;100494.36;2088005;85;31176;-77
2022/05/16 12:55:19;;;;;;;4.45;2.02;;;;;;;23.60;27.52;100478.95;2084820;85;33877;-74
2022/05/16 12:58:59;;;;;;;5.67;2.02;;;;;;;23.56;27.47;100481.65;2084268;85;29043;-77
2022/05/16 13:02:31;;;;;;;4.15;1.57;;;;;;;23.56;27.79;100477.05;2084763;85;27827;-75
2022/05/16 13:05:51;;;;;;;2.60;1.45;;;;;;;23.60;27.80;100469.39;2084114;85;28663;-74
2022/05/16 13:09:00;;;;;;;7.65;1.98;;;;;;;23.63;27.93;100461.72;2083593;85;27832;-74
2022/05/16 13:12:34;;;;;;;6.17;1.62;;;;;;;23.64;27.93;100463.44;2081252;84;32972;-73
2022/05/16 13:16:00;;;;;;;4.00;2.02;;;;;;;23.66;27.95;100464.14;2062409;84;29035;-76
2022/05/16 13:19:06;;;;;;;;;;;;;;;23.63;27.79;100456.77;2117145;84;28148;-75
2022/05/16 13:22:16;;;;;;;8.33;2.55;;;;;;;23.63;27.96;100464.98;2114913;84;28845;-74
2022/05/16 13:25:23;;;;;;;3.90;1.80;;;;;;;23.62;27.83;100467.36;2114818;84;31126;-76
2022/05/16 13:31:56;;;;;;;4.60;1.90;;;;;;;23.57;27.92;100461.00;2114916;84;29976;-72
2022/05/16 13:35:09;;;;;;;8.47;2.07;;;;;;;23.59;27.93;100450.73;2114946;84;27761;-66
2022/05/16 13:38:16;;;;;;;6.92;1.70;;;;;;;23.61;27.99;100449.23;2114569;84;29079;-66
2022/05/16 13:41:26;;;;;;;6.22;1.55;;;;;;;23.60;28.00;100449.72;2084217;85;30799;-65
2022/05/16 13:44:42;;;;;;;6.00;1.85;;;;;;;23.59;27.98;100441.16;2085043;85;32588;-66
2022/05/16 13:47:44;;;;;;;5.50;1.85;;;;;;;23.58;27.94;100439.97;2084538;85;29858;-64
2022/05/16 13:50:48;;;;;;;3.80;1.67;;;;;;;23.60;28.03;100437.94;2114996;84;27694;-67
2022/05/16 13:53:51;;;;;;;9.10;2.62;;;;;;;23.58;27.70;100433.13;2115228;82;29486;-68
2022/05/16 13:57:00;;;;;;;5.97;1.98;;;;;;;23.56;27.94;100431.05;2115833;84;31063;-69
2022/05/16 14:00:22;;;;;;;5.65;1.90;;;;;;;23.52;28.28;100428.62;2115803;84;33873;-69
2022/05/16 14:03:35;;;;;;;10.50;2.08;;;;;;;23.52;28.31;100431.37;2101884;84;29822;-69
2022/05/16 14:06:50;;;;;;;3.70;1.60;;;;;;;23.58;28.30;100433.13;2053933;86;27688;-66
2022/05/16 14:09:56;;;;;;;4.08;2.15;;;;;;;23.59;28.45;100428.02;2051211;86;28829;-68
2022/05/16 14:13:02;;;;;;;4.85;2.12;;;;;;;23.63;28.58;100423.42;2088356;85;31901;-67
2022/05/16 14:16:19;;;;;;;6.45;1.60;;;;;;;23.66;28.24;100419.53;2088247;85;33766;-69
2022/05/16 14:19:37;;;;;;;4.75;2.15;;;;;;;23.67;28.33;100415.27;2053821;86;29258;-70
2022/05/16 14:22:52;;;;;;;4.83;1.65;;;;;;;23.73;28.60;100411.02;2088078;85;27635;-70
2022/05/16 14:26:17;;;;;;;4.50;1.60;;;;;;;23.76;28.34;100403.88;2087591;84;28891;-70
2022/05/16 14:29:28;;;;;;;;;;;;;;;23.75;28.24;100402.16;2090137;85;31082;-70
2022/05/16 14:32:33;;;;;;;3.72;1.55;;;;;;;23.72;28.33;100397.52;2088528;85;33082;-69
2022/05/16 14:35:37;;;;;;;4.80;1.92;;;;;;;23.72;28.24;100400.25;2087899;85;29078;-67
2022/05/16 14:38:49;;;;;;;4.62;1.87;;;;;;;23.69;27.85;100397.83;2088367;85;28265;-62
2022/05/16 14:42:05;;;;;;;5.45;1.42;;;;;;;23.63;28.18;100397.44;2089668;85;29023;-65
2022/05/16 14:46:42;;;;;;;6.47;1.55;;;;;;;23.64;27.76;100395.06;2124812;83;31845;-64
2022/05/16 14:48:26;;;;;;;3.40;1.60;;;;;;;23.64;28.01;100390.11;2121062;83;32968;-66
2022/05/16 14:51:32;;;;;;;5.10;2.40;;;;;;;23.64;27.86;100390.95;2124432;83;29879;-69
2022/05/16 14:54:46;;;;;;;9.70;2.30;;;;;;;23.68;27.97;100394.22;2118181;83;27727;-69
2022/05/16 14:57:46;;;;;;;5.03;2.42;;;;;;;23.65;27.71;100385.84;2099121;84;29583;-72
2022/05/16 15:04:17;;;;;;;2.95;1.50;;;;;;;23.63;27.66;100377.45;2101751;84;31356;-68
2022/05/16 15:07:21;;;;;;;4.65;2.08;;;;;;;23.62;27.45;100376.58;2102527;84;29027;-66
2022/05/16 15:10:28;;;;;;;4.00;1.52;;;;;;;23.62;27.42;100379.84;2077527;84;27888;-65
2022/05/16 15:13:35;;;;;;;3.92;1.30;;;;;;;23.62;27.51;100371.11;2105403;84;28640;-65
2022/05/16 15:16:41;;;;;;;2.02;1.30;;;;;;;23.60;27.36;100372.30;2105191;84;31089;-67
2022/05/16 15:19:46;;;;;;;4.70;1.98;;;;;;;23.58;27.46;100368.34;2102730;84;33610;-66
2022/05/16 15:22:55;;;;;;;4.78;2.27;;;;;;;23.60;27.57;100377.77;2102715;84;29074;-68
2022/05/16 15:26:01;;;;;;;14.45;2.35;;;;;;;23.62;27.34;100367.53;2102857;84;27871;-67